Time;durP1;ratioP1;P1;durP2;ratioP2;P2;SDS_P1;SDS_P2;PMS_P1;PMS_P2;Temp;Humidity;BMP_temperature;BMP_pressure;BME280_temperature;BME280_humidity;BME280_pressure;Samples;Min_cycle;Max_cycle;Signal;HPM_P1;HPM_P2
2022/03/11 00:01:32;;;;;;;;;6.00;6.00;;;;;14.59;47.57;99736.34;5035006;28;46519;-71
2022/03/11 00:03:58;;;;;;;;;7.00;7.00;;;;;14.43;47.46;99710.03;5034579;28;45458;-71
2022/03/11 00:06:23;;;;;;;;;5.33;5.33;;;;;14.56;47.37;99747.72;5035171;28;45503;-71
2022/03/11 00:08:51;;;;;;;;;7.67;6.33;;;;;14.37;47.53;99728.41;5034063;28;45869;-71
2022/03/11 00:11:16;;;;;;;;;5.00;5.00;;;;;14.42;47.20;99723.16;5034815;28;45533;-70
2022/03/11 00:13:42;;;;;;;;;4.33;3.33;;;;;14.49;47.29;99735.44;5034651;28;45342;-71
2022/03/11 00:16:08;;;;;;;;;5.33;5.00;;;;;14.50;47.49;99738.06;5034992;28;45508;-70
2022/03/11 00:18:34;;;;;;;;;5.67;5.00;;;;;13.96;48.07;99650.41;5034866;28;45579;-71
2022/03/11 00:21:00;;;;;;;;;6.67;5.00;;;;;14.40;47.91;99731.03;5034237;28;46459;-71
2022/03/11 00:23:26;;;;;;;;;6.00;6.00;;;;;14.17;48.01;99690.75;5034944;28;45580;-71
2022/03/11 00:25:51;;;;;;;;;7.00;6.67;;;;;14.29;48.00;99711.75;5034900;28;45593;-71
2022/03/11 00:28:17;;;;;;;;;4.33;4.33;;;;;14.31;48.02;99728.41;5034642;28;45507;-71
2022/03/11 00:30:43;;;;;;;;;5.67;5.00;;;;;14.26;48.14;99720.50;5034193;28;46201;-70
2022/03/11 00:33:08;;;;;;;;;5.67;5.00;;;;;14.20;48.23;99717.00;5034281;28;45561;-71
2022/03/11 00:35:35;;;;;;;;;5.67;5.67;;;;;14.20;48.58;99714.38;5034098;28;45497;-71
2022/03/11 00:38:00;;;;;;;;;6.00;5.00;;;;;14.08;48.46;99704.72;5034670;28;45471;-71
2022/03/11 00:40:26;;;;;;;;;6.75;6.75;;;;;14.23;48.60;99715.25;5033883;28;45566;-72
2022/03/11 00:42:52;;;;;;;;;5.00;4.67;;;;;14.25;48.53;99712.63;5035065;28;45529;-71
2022/03/11 00:45:18;;;;;;;;;6.33;5.00;;;;;14.26;48.52;99707.34;5032981;28;45498;-70
2022/03/11 00:47:44;;;;;;;;;6.67;6.67;;;;;14.22;48.48;99686.34;5034712;28;45455;-71
2022/03/11 00:50:11;;;;;;;;;5.00;5.00;;;;;14.26;48.33;99681.09;5034005;28;46348;-71
2022/03/11 00:52:37;;;;;;;;;7.50;6.75;;;;;14.28;48.19;99674.13;5034423;28;45775;-71
2022/03/11 00:55:03;;;;;;;;;6.00;5.33;;;;;13.79;48.39;99583.91;5033996;28;46589;-71
2022/03/11 00:57:29;;;;;;;;;5.00;4.67;;;;;14.24;48.27;99653.06;5034337;28;45514;-71
2022/03/11 00:59:54;;;;;;;;;4.33;4.00;;;;;14.18;48.60;99639.94;5034582;28;45441;-71
2022/03/11 01:02:20;;;;;;;;;6.33;5.00;;;;;14.19;48.64;99646.97;5033979;28;45441;-71
2022/03/11 01:04:48;;;;;;;;;6.00;5.67;;;;;14.14;48.98;99639.06;5034310;28;45377;-71
2022/03/11 01:07:14;;;;;;;;;5.00;5.00;;;;;14.20;48.85;99651.31;5020365;28;45586;-71
2022/03/11 01:09:40;;;;;;;;;7.00;5.50;;;;;14.22;49.21;99654.81;5033619;28;45371;-71
2022/03/11 01:12:05;;;;;;;;;5.67;5.33;;;;;14.16;49.37;99657.44;5032674;28;45536;-71
2022/03/11 01:14:32;;;;;;;;;4.67;4.33;;;;;14.17;49.17;99648.72;5033983;28;45509;-71
2022/03/11 01:16:58;;;;;;;;;7.00;6.00;;;;;14.06;49.43;99631.16;5034071;28;45471;-71
2022/03/11 01:19:23;;;;;;;;;6.00;6.00;;;;;14.12;49.33;99646.06;5034437;28;45393;-71
2022/03/11 01:21:49;;;;;;;;;7.00;6.00;;;;;14.07;49.38;99634.69;5037311;28;46813;-71
2022/03/11 01:24:15;;;;;;;;;6.33;6.33;;;;;14.12;49.11;99644.34;5037478;28;45484;-71
2022/03/11 01:26:40;;;;;;;;;6.00;5.00;;;;;14.16;49.76;99642.56;5037467;28;45478;-71
2022/03/11 01:29:06;;;;;;;;;5.00;4.00;;;;;14.12;49.26;99631.19;5037692;28;46408;-71
2022/03/11 01:31:32;;;;;;;;;5.00;5.00;;;;;14.04;49.16;99621.53;5039064;28;45495;-71
2022/03/11 01:33:57;;;;;;;;;8.67;8.33;;;;;14.20;49.05;99632.94;5039593;28;45213;-72
2022/03/11 01:36:23;;;;;;;;;9.25;8.50;;;;;13.75;48.71;99548.00;5039308;28;45434;-71
2022/03/11 01:38:48;;;;;;;;;8.00;8.00;;;;;14.24;48.90;99626.81;5038722;28;46251;-71
2022/03/11 01:41:14;;;;;;;;;9.25;8.25;;;;;14.28;48.88;99644.31;5038763;28;45332;-71
2022/03/11 01:43:50;;;;;;;;;11.00;9.25;;;;;14.13;49.20;99619.81;5027437;28;45233;-71
2022/03/11 01:46:17;;;;;;;;;9.00;8.67;;;;;14.17;49.04;99636.44;5039081;28;45435;-71
2022/03/11 01:48:43;;;;;;;;;11.25;9.00;;;;;14.13;48.93;99634.69;5038814;28;45461;-71
2022/03/11 01:51:08;;;;;;;;;7.33;7.00;;;;;14.17;49.41;99635.56;5038901;28;45459;-71
2022/03/11 01:53:35;;;;;;;;;7.67;7.00;;;;;14.27;48.73;99653.97;5038590;28;45462;-71
2022/03/11 01:56:01;;;;;;;;;6.00;6.00;;;;;14.11;48.81;99611.06;5038688;28;45431;-71
2022/03/11 01:58:28;;;;;;;;;5.00;5.00;;;;;14.27;48.65;99640.81;5037259;28;46127;-71
2022/03/11 02:00:53;;;;;;;;;6.00;5.00;;;;;14.29;48.81;99625.06;5038487;28;45620;-71
2022/03/11 02:03:20;;;;;;;;;7.00;6.33;;;;;14.26;48.93;99607.53;5039098;28;45387;-71
2022/03/11 02:05:45;;;;;;;;;5.33;5.00;;;;;14.29;48.77;99607.56;5038657;28;45508;-71
2022/03/11 02:08:11;;;;;;;;;6.33;5.00;;;;;14.15;48.43;99574.28;5036991;28;45604;-71
2022/03/11 02:10:36;;;;;;;;;6.50;6.00;;;;;14.12;48.86;99581.31;5037870;28;45497;-71
2022/03/11 02:13:06;;;;;;;;;7.00;6.00;;;;;14.14;48.55;99591.78;5038338;28;45419;-71
2022/03/11 02:15:33;;;;;;;;;6.50;6.00;;;;;14.18;48.82;99600.53;5038967;28;45586;-72
2022/03/11 02:17:59;;;;;;;;;6.00;5.00;;;;;14.25;49.01;99613.69;5038188;28;45477;-71
2022/03/11 02:20:24;;;;;;;;;6.00;5.00;;;;;14.23;49.12;99625.94;5037992;28;45574;-70
2022/03/11 02:22:52;;;;;;;;;7.00;6.00;;;;;14.16;49.04;99618.91;5038113;28;45458;-71
2022/03/11 02:25:18;;;;;;;;;5.00;5.00;;;;;14.12;48.90;99618.06;5038560;28;45516;-71
2022/03/11 02:27:46;;;;;;;;;6.50;5.50;;;;;14.11;49.26;99626.81;5037833;28;46063;-71
2022/03/11 02:30:14;;;;;;;;;6.00;5.33;;;;;14.10;49.10;99614.53;5037824;28;45623;-70
2022/03/11 02:32:42;;;;;;;;;6.25;5.00;;;;;14.09;49.27;99619.81;5036679;28;45451;-71
2022/03/11 02:35:08;;;;;;;;;7.50;7.25;;;;;14.24;49.10;99626.81;5038192;28;45291;-71
2022/03/11 02:37:34;;;;;;;;;6.00;5.00;;;;;14.06;48.89;99586.53;5037844;28;46194;-71
2022/03/11 02:40:00;;;;;;;;;6.00;6.00;;;;;14.29;48.62;99620.69;5037995;28;45377;-71
2022/03/11 02:42:25;;;;;;;;;5.00;5.00;;;;;14.28;48.87;99610.16;5016777;28;45494;-71
2022/03/11 02:44:51;;;;;;;;;5.00;4.33;;;;;13.64;48.40;99490.25;5038232;28;45823;-71
2022/03/11 02:47:16;;;;;;;;;5.00;5.00;;;;;14.31;48.28;99602.31;5038198;28;45416;-72
2022/03/11 02:49:42;;;;;;;;;4.00;3.00;;;;;14.27;48.47;99600.56;5037841;28;45178;-71
2022/03/11 02:52:10;;;;;;;;;5.00;5.00;;;;;14.37;48.58;99619.81;5037795;28;45389;-71
2022/03/11 02:54:36;;;;;;;;;6.00;5.00;;;;;14.36;48.30;99624.19;5037990;28;45565;-71
2022/03/11 02:57:02;;;;;;;;;7.00;6.00;;;;;14.39;48.30;99618.94;5037126;28;45502;-71
2022/03/11 02:59:28;;;;;;;;;6.00;6.00;;;;;14.38;48.27;99604.03;5037881;28;45544;-71
2022/03/11 03:01:53;;;;;;;;;5.67;5.00;;;;;14.36;48.35;99592.66;5037805;28;45422;-71
2022/03/11 03:04:19;;;;;;;;;5.33;5.00;;;;;14.40;48.14;99577.75;5038329;28;45224;-71
2022/03/11 03:06:44;;;;;;;;;4.67;4.67;;;;;14.40;48.05;99554.97;5037537;28;45732;-71
2022/03/11 03:09:10;;;;;;;;;6.00;6.00;;;;;14.30;47.85;99525.25;5037271;28;45416;-71
2022/03/11 03:11:36;;;;;;;;;5.00;5.00;;;;;14.51;47.74;99555.84;5037319;28;45487;-71
2022/03/11 03:14:02;;;;;;;;;6.00;6.00;;;;;14.28;47.79;99512.97;5038411;28;45342;-71
2022/03/11 03:16:28;;;;;;;;;4.00;4.00;;;;;14.26;48.03;99502.47;5037649;28;45767;-71
2022/03/11 03:18:54;;;;;;;;;7.33;7.00;;;;;14.44;47.55;99505.94;5037687;28;45257;-71
2022/03/11 03:21:19;;;;;;;;;6.33;5.67;;;;;14.44;47.69;99483.19;5037593;28;45608;-71
2022/03/11 03:23:45;;;;;;;;;4.00;4.00;;;;;14.47;47.27;99480.53;5030949;28;45470;-71
2022/03/11 03:26:11;;;;;;;;;6.67;5.00;;;;;14.54;47.17;99476.13;5037555;28;45453;-71
2022/03/11 03:28:37;;;;;;;;;6.00;5.33;;;;;14.60;47.19;99485.78;5036740;28;45528;-71
2022/03/11 03:31:02;;;;;;;;;5.33;4.33;;;;;14.53;47.33;99484.91;5037205;28;45464;-71
2022/03/11 03:33:28;;;;;;;;;7.33;6.00;;;;;14.56;46.90;99473.50;5037165;28;45416;-71
2022/03/11 03:35:55;;;;;;;;;5.33;5.33;;;;;14.58;47.00;99484.91;5037718;28;45331;-71
2022/03/11 03:38:20;;;;;;;;;6.00;5.00;;;;;14.55;47.34;99491.03;5036915;28;45319;-71
2022/03/11 03:40:46;;;;;;;;;5.00;5.00;;;;;14.52;47.16;99512.03;5036778;28;45512;-71
2022/03/11 03:43:11;;;;;;;;;4.67;4.67;;;;;14.48;47.51;99521.72;5036753;28;45501;-70
2022/03/11 03:45:37;;;;;;;;;4.00;4.00;;;;;14.45;47.66;99529.59;5037204;28;46523;-71
2022/03/11 03:48:03;;;;;;;;;2.33;1.67;;;;;14.46;47.22;99510.34;5037018;28;45445;-71
2022/03/11 03:50:29;;;;;;;;;6.67;5.00;;;;;14.43;47.20;99486.66;5036825;28;45353;-71
2022/03/11 03:52:55;;;;;;;;;6.00;5.00;;;;;14.53;47.53;99512.03;5038129;28;45669;-70
2022/03/11 03:55:20;;;;;;;;;5.00;5.00;;;;;14.53;47.34;99513.81;5037430;28;46592;-70
2022/03/11 03:57:46;;;;;;;;;6.00;5.00;;;;;14.56;47.26;99524.31;5037565;28;45455;-70
2022/03/11 04:00:12;;;;;;;;;5.00;4.67;;;;;14.49;47.33;99520.81;5037867;28;45311;-69
2022/03/11 04:02:44;;;;;;;;;6.67;5.00;;;;;14.53;47.27;99516.44;5037826;28;45411;-69
2022/03/11 04:05:13;;;;;;;;;5.67;5.00;;;;;14.47;47.43;99495.44;5037200;28;45484;-77
2022/03/11 04:07:42;;;;;;;;;5.00;5.00;;;;;14.55;47.22;99490.16;5037458;28;45338;-69
2022/03/11 04:10:08;;;;;;;;;6.00;6.00;;;;;14.54;47.01;99499.75;5037739;28;45315;-69
2022/03/11 04:12:34;;;;;;;;;6.00;5.00;;;;;14.52;47.18;99486.66;5037974;28;45287;-69
2022/03/11 04:14:59;;;;;;;;;5.00;4.00;;;;;14.49;47.32;99478.78;5037358;28;46245;-70
2022/03/11 04:17:25;;;;;;;;;5.33;5.33;;;;;14.56;47.14;99505.03;5037476;28;45405;-70
2022/03/11 04:19:50;;;;;;;;;4.00;4.00;;;;;14.48;47.37;99486.66;5037600;28;45371;-69
2022/03/11 04:22:16;;;;;;;;;4.67;4.67;;;;;14.57;47.10;99485.81;5036913;28;45482;-70
2022/03/11 04:24:41;;;;;;;;;5.67;5.00;;;;;14.45;47.02;99466.53;5036894;28;46157;-70
2022/03/11 04:27:08;;;;;;;;;5.67;5.00;;;;;14.45;47.47;99455.16;5037047;28;45367;-70
2022/03/11 04:29:34;;;;;;;;;5.33;5.33;;;;;14.56;47.30;99455.09;5037857;28;45331;-69
2022/03/11 04:32:01;;;;;;;;;4.00;3.67;;;;;14.55;47.09;99456.00;5037528;28;45425;-70
2022/03/11 04:34:26;;;;;;;;;5.33;5.33;;;;;14.52;47.08;99444.63;5037034;28;45704;-69
2022/03/11 04:36:52;;;;;;;;;7.00;7.00;;;;;14.47;47.09;99427.97;5036760;28;45719;-69
2022/03/11 04:39:17;;;;;;;;;5.00;4.33;;;;;14.59;46.98;99437.59;5036857;28;45343;-69
2022/03/11 04:41:44;;;;;;;;;5.00;5.00;;;;;14.51;46.66;99398.16;5037287;28;45472;-70
2022/03/11 04:44:10;;;;;;;;;5.33;4.00;;;;;14.68;46.56;99403.41;5036794;28;45550;-70
2022/03/11 04:46:36;;;;;;;;;4.00;4.00;;;;;14.56;46.61;99387.66;5036588;28;45306;-70
2022/03/11 04:49:02;;;;;;;;;5.00;5.00;;;;;14.68;46.63;99413.91;5036961;28;45458;-69
2022/03/11 04:51:28;;;;;;;;;5.00;5.00;;;;;14.68;46.45;99407.75;5036475;28;45835;-70
2022/03/11 04:53:55;;;;;;;;;5.67;4.67;;;;;14.66;46.56;99428.81;5036662;28;45513;-70
2022/03/11 04:56:21;;;;;;;;;5.00;4.00;;;;;14.69;46.38;99420.03;5034829;28;45921;-70
2022/03/11 04:58:46;;;;;;;;;4.00;3.33;;;;;14.69;46.50;99434.03;5036563;28;45387;-70
2022/03/11 05:01:12;;;;;;;;;6.00;6.00;;;;;14.66;46.37;99441.06;5036172;28;45288;-70
2022/03/11 05:03:37;;;;;;;;;5.00;4.00;;;;;14.58;46.70;99421.81;5036634;28;45381;-70
2022/03/11 05:06:03;;;;;;;;;4.00;4.00;;;;;14.70;46.29;99427.03;5036889;28;45485;-70
2022/03/11 05:08:28;;;;;;;;;7.00;6.33;;;;;14.80;46.11;99441.00;5036744;28;45370;-70
2022/03/11 05:10:54;;;;;;;;;5.67;5.00;;;;;14.80;45.90;99417.34;5036957;28;45358;-70
2022/03/11 05:13:20;;;;;;;;;4.67;4.33;;;;;14.36;45.83;99348.31;5036031;28;46169;-70
2022/03/11 05:15:45;;;;;;;;;7.00;6.67;;;;;14.78;45.99;99411.22;5036081;28;45405;-70
2022/03/11 05:18:11;;;;;;;;;5.00;4.00;;;;;14.78;46.03;99392.81;5033920;28;45489;-70
2022/03/11 05:20:38;;;;;;;;;4.33;4.33;;;;;14.86;45.89;99397.16;5035994;28;45542;-70
2022/03/11 05:23:03;;;;;;;;;4.00;3.00;;;;;14.90;45.65;99390.09;5036578;28;45616;-69
2022/03/11 05:25:29;;;;;;;;;5.00;4.00;;;;;14.98;45.39;99398.84;5036187;28;45414;-70
2022/03/11 05:27:55;;;;;;;;;8.00;5.00;;;;;14.95;45.62;99390.97;5036663;28;45256;-70
2022/03/11 05:30:21;;;;;;;;;5.00;5.00;;;;;14.97;45.61;99380.44;5036792;28;45395;-70
2022/03/11 05:32:47;;;;;;;;;5.33;4.67;;;;;15.06;45.11;99389.16;5036398;28;45412;-70
2022/03/11 05:35:14;;;;;;;;;5.67;5.33;;;;;15.04;45.45;99369.88;5036152;28;45493;-70
2022/03/11 05:37:40;;;;;;;;;3.67;3.67;;;;;15.03;45.25;99372.50;5036399;28;45455;-71
2022/03/11 05:40:07;;;;;;;;;5.00;4.00;;;;;15.06;45.44;99354.97;5035884;28;45579;-70
2022/03/11 05:42:33;;;;;;;;;6.00;6.00;;;;;14.96;45.60;99341.88;5034980;28;45655;-70
2022/03/11 05:44:58;;;;;;;;;6.00;5.00;;;;;14.99;45.28;99341.84;5034851;28;45423;-70
2022/03/11 05:47:24;;;;;;;;;4.67;4.67;;;;;14.99;45.37;99331.34;5035254;28;45477;-70
2022/03/11 05:49:50;;;;;;;;;4.67;4.00;;;;;15.13;45.33;99353.13;5035480;28;45500;-70
2022/03/11 05:52:15;;;;;;;;;4.00;4.00;;;;;14.83;45.49;99312.16;5034902;28;45701;-70
2022/03/11 05:54:41;;;;;;;;;5.33;5.00;;;;;14.88;45.06;99329.66;5035588;28;45421;-69
2022/03/11 05:57:07;;;;;;;;;6.00;5.33;;;;;15.00;45.59;99348.84;5035630;28;45616;-70
2022/03/11 05:59:33;;;;;;;;;5.00;3.33;;;;;15.01;45.54;99362.00;5035766;28;45315;-70
2022/03/11 06:01:59;;;;;;;;;6.00;5.00;;;;;15.03;45.76;99362.00;5034602;28;46236;-70
2022/03/11 06:04:25;;;;;;;;;5.00;5.00;;;;;15.01;45.83;99351.47;5035385;28;45549;-70
2022/03/11 06:06:50;;;;;;;;;4.00;4.00;;;;;14.99;45.88;99360.25;5035834;28;45441;-69
2022/03/11 06:09:16;;;;;;;;;5.00;4.00;;;;;14.94;46.04;99355.06;5039989;28;45370;-70
2022/03/11 06:11:42;;;;;;;;;5.00;4.00;;;;;15.00;46.10;99375.16;5039360;28;45719;-70
2022/03/11 06:14:08;;;;;;;;;4.00;4.00;;;;;15.00;45.99;99369.88;5039198;28;45330;-70
2022/03/11 06:16:34;;;;;;;;;6.33;5.00;;;;;15.03;45.72;99377.78;5037753;28;45466;-70
2022/03/11 06:19:00;;;;;;;;;5.67;4.00;;;;;15.03;45.48;99376.00;5037788;28;45489;-70
2022/03/11 06:21:26;;;;;;;;;3.67;3.67;;;;;15.01;45.42;99369.03;5036571;28;45937;-69
2022/03/11 06:23:52;;;;;;;;;3.00;3.00;;;;;15.11;45.29;99355.78;5036703;28;45491;-70
2022/03/11 06:26:18;;;;;;;;;2.33;2.33;;;;;15.16;45.27;99366.28;5036276;28;45379;-70
2022/03/11 06:28:43;;;;;;;;;7.33;6.00;;;;;15.04;45.17;99358.47;5036758;28;46042;-71
2022/03/11 06:31:09;;;;;;;;;5.00;4.00;;;;;15.19;45.16;99371.50;5036347;28;45462;-69
2022/03/11 06:33:34;;;;;;;;;3.67;3.67;;;;;14.88;45.00;99302.47;5036159;28;45532;-70
2022/03/11 06:36:01;;;;;;;;;3.00;3.00;;;;;15.14;45.20;99347.00;5036338;28;45498;-73
2022/03/11 06:38:27;;;;;;;;;4.00;4.00;;;;;15.11;45.54;99354.91;5035824;28;45559;-73
2022/03/11 06:40:54;;;;;;;;;2.00;1.67;;;;;15.20;45.69;99353.94;5035985;28;45526;-70
2022/03/11 06:43:20;;;;;;;;;5.33;5.00;;;;;15.24;45.50;99368.81;5036023;28;45497;-70
2022/03/11 06:45:45;;;;;;;;;5.67;4.00;;;;;15.08;45.66;99353.19;5036005;28;46144;-71
2022/03/11 06:48:11;;;;;;;;;5.00;5.00;;;;;15.25;45.75;99381.97;5036838;28;45458;-70
2022/03/11 06:50:36;;;;;;;;;5.67;4.67;;;;;15.29;45.71;99367.03;5035788;28;45505;-70
2022/03/11 06:53:02;;;;;;;;;5.00;5.00;;;;;15.26;45.62;99372.31;5036707;28;45268;-70
2022/03/11 06:55:28;;;;;;;;;4.33;4.33;;;;;15.22;45.79;99379.38;5036785;28;45438;-70
2022/03/11 06:57:53;;;;;;;;;6.00;6.00;;;;;15.28;45.91;99373.22;5036523;28;45671;-70
2022/03/11 07:00:19;;;;;;;;;5.00;5.00;;;;;15.28;45.97;99360.06;5035880;28;45478;-77
2022/03/11 07:02:45;;;;;;;;;4.00;4.00;;;;;15.19;45.97;99386.44;5035896;28;45477;-70
2022/03/11 07:05:11;;;;;;;;;5.00;4.33;;;;;15.21;45.82;99393.41;5036642;28;45610;-72
2022/03/11 07:07:37;;;;;;;;;5.00;5.00;;;;;15.29;45.92;99410.00;5036489;28;45481;-70
2022/03/11 07:10:05;;;;;;;;;6.00;6.00;;;;;15.29;46.12;99403.88;5033841;28;45615;-77
2022/03/11 07:12:32;;;;;;;;;5.00;4.00;;;;;15.21;46.29;99390.78;5036293;28;45468;-71
2022/03/11 07:15:02;;;;;;;;;6.67;6.00;;;;;15.10;46.14;99374.22;5035440;28;46004;-72
2022/03/11 07:17:28;;;;;;;;;6.00;5.00;;;;;15.30;46.11;99413.53;5033520;28;45580;-70
2022/03/11 07:19:54;;;;;;;;;4.33;4.33;;;;;15.28;46.28;99402.16;5034912;28;46084;-70
2022/03/11 07:22:20;;;;;;;;;5.00;5.00;;;;;15.26;46.54;99396.91;5035157;28;46591;-78
2022/03/11 07:24:45;;;;;;;;;5.00;5.00;;;;;15.23;46.17;99402.16;5035136;28;45670;-69
2022/03/11 07:27:12;;;;;;;;;9.00;7.00;;;;;15.23;46.67;99406.56;5036078;28;45544;-72
2022/03/11 07:29:38;;;;;;;;;4.33;4.33;;;;;15.23;46.44;99406.56;5035629;28;45490;-76
2022/03/11 07:32:04;;;;;;;;;5.00;5.00;;;;;15.29;46.59;99422.31;5031376;28;45393;-77
2022/03/11 07:34:30;;;;;;;;;5.67;5.00;;;;;15.09;46.65;99393.50;5035312;28;45486;-73
2022/03/11 07:36:55;;;;;;;;;6.00;5.00;;;;;15.30;46.68;99424.06;5035424;28;45378;-75
2022/03/11 07:39:21;;;;;;;;;5.67;5.00;;;;;15.24;46.69;99424.97;5034494;28;45316;-75
2022/03/11 07:41:49;;;;;;;;;5.00;5.00;;;;;15.26;46.63;99436.34;5033952;28;45431;-69
2022/03/11 07:44:14;;;;;;;;;7.00;6.67;;;;;15.34;46.64;99432.78;5034818;28;45615;-70
2022/03/11 07:46:40;;;;;;;;;6.00;6.00;;;;;15.38;46.75;99459.09;5035259;28;45522;-69
2022/03/11 07:49:06;;;;;;;;;5.00;4.00;;;;;14.96;46.76;99376.06;5035204;28;45893;-70
2022/03/11 07:51:32;;;;;;;;;6.00;6.00;;;;;15.38;46.40;99429.25;5034993;28;45625;-70
2022/03/11 07:53:58;;;;;;;;;6.67;6.00;;;;;15.52;46.32;99466.88;5035067;28;45557;-70
2022/03/11 07:56:24;;;;;;;;;6.00;5.33;;;;;15.53;46.59;99458.09;5034710;28;45606;-70
2022/03/11 07:58:50;;;;;;;;;7.00;7.00;;;;;15.49;46.40;99437.94;5034688;28;45575;-70
2022/03/11 08:01:15;;;;;;;;;6.00;5.00;;;;;15.48;46.24;99433.56;5034965;28;45390;-71
2022/03/11 08:03:42;;;;;;;;;7.00;6.00;;;;;15.53;46.44;99439.66;5031614;28;45870;-72
2022/03/11 08:06:09;;;;;;;;;8.00;6.00;;;;;15.54;46.33;99446.69;5033160;28;45524;-70
2022/03/11 08:08:38;;;;;;;;;7.33;7.00;;;;;15.68;46.35;99475.53;5032869;28;45607;-71
2022/03/11 08:11:05;;;;;;;;;8.00;7.00;;;;;15.64;45.81;99450.97;5035006;28;45545;-70
2022/03/11 08:13:31;;;;;;;;;8.00;7.33;;;;;15.76;46.06;99473.75;5033211;28;45567;-70
2022/03/11 08:15:56;;;;;;;;;10.00;9.00;;;;;15.96;45.69;99492.00;5035602;28;45403;-70
2022/03/11 08:18:22;;;;;;;;;10.00;9.00;;;;;15.99;45.59;99476.16;5034583;28;46325;-71
2022/03/11 08:20:48;;;;;;;;;7.67;7.00;;;;;15.94;45.22;99464.81;5036209;28;45693;-70
2022/03/11 08:23:14;;;;;;;;;4.67;4.67;;;;;16.07;45.61;99490.13;5036830;28;45478;-70
2022/03/11 08:25:40;;;;;;;;;8.00;7.33;;;;;16.03;45.57;99495.44;5037297;28;45472;-71
2022/03/11 08:28:10;;;;;;;;;7.00;6.33;;;;;15.98;45.46;99489.38;5034367;28;46439;-70
2022/03/11 08:30:36;;;;;;;;;8.67;8.33;;;;;16.03;45.45;99504.22;5035397;28;45485;-70
2022/03/11 08:33:02;;;;;;;;;8.00;8.00;;;;;16.04;45.63;99508.59;5036355;28;46172;-70
2022/03/11 08:35:28;;;;;;;;;8.33;8.33;;;;;16.12;45.58;99508.53;5035763;28;45450;-70
2022/03/11 08:37:54;;;;;;;;;7.67;7.33;;;;;16.30;45.01;99507.50;5035310;28;45548;-71
2022/03/11 08:40:23;;;;;;;;;12.67;12.00;;;;;17.01;44.14;99518.16;5035715;28;45716;-70
2022/03/11 08:42:50;;;;;;;;;8.00;7.00;;;;;17.55;43.01;99520.03;5035912;28;45404;-70
2022/03/11 08:45:18;;;;;;;;;9.67;8.67;;;;;17.54;42.60;99494.53;5034449;28;45441;-70
2022/03/11 08:47:44;;;;;;;;;10.00;10.00;;;;;17.69;42.65;99527.75;5032435;28;45480;-70
2022/03/11 08:50:10;;;;;;;;;7.33;6.67;;;;;17.77;42.06;99530.28;5030837;28;45524;-68
2022/03/11 08:52:36;;;;;;;;;7.67;7.67;;;;;17.73;42.05;99508.31;5033466;28;45474;-68
2022/03/11 08:55:03;;;;;;;;;5.67;5.00;;;;;17.85;41.61;99539.00;5033819;28;45534;-68
2022/03/11 08:57:28;;;;;;;;;4.67;3.33;;;;;17.86;41.81;99524.88;5033200;28;46394;-69
2022/03/11 08:59:54;;;;;;;;;9.33;9.00;;;;;17.87;41.43;99548.63;5033066;28;45505;-71
2022/03/11 09:02:22;;;;;;;;;6.00;6.00;;;;;18.02;41.31;99547.50;5032991;28;45481;-71
2022/03/11 09:04:48;;;;;;;;;5.33;5.33;;;;;18.20;40.81;99563.94;5033198;28;45434;-70
2022/03/11 09:07:14;;;;;;;;;6.67;6.33;;;;;18.36;40.49;99554.84;5032936;28;47694;-70
2022/03/11 09:09:40;;;;;;;;;8.67;7.33;;;;;18.72;40.16;99559.50;5033143;28;45499;-70
2022/03/11 09:12:06;;;;;;;;;7.67;7.67;;;;;18.48;40.07;99580.19;5033227;28;45493;-72
2022/03/11 09:14:32;;;;;;;;;12.00;10.33;;;;;18.59;40.33;99595.91;5033190;28;45541;-71
2022/03/11 09:16:58;;;;;;;;;6.00;6.00;;;;;19.31;39.24;99578.63;5032500;28;45470;-71
2022/03/11 09:19:24;;;;;;;;;8.00;8.00;;;;;19.62;38.60;99586.78;5029940;28;45682;-71
2022/03/11 09:21:49;;;;;;;;;8.00;7.33;;;;;19.53;38.73;99600.22;5032982;28;45635;-70
2022/03/11 09:24:15;;;;;;;;;9.00;9.00;;;;;20.61;36.92;99592.41;5033889;28;45477;-70
2022/03/11 09:26:41;;;;;;;;;6.33;6.33;;;;;22.37;35.15;99612.03;5032991;28;46558;-81
2022/03/11 09:29:07;;;;;;;;;8.33;8.33;;;;;24.18;31.69;99613.34;5033249;28;45908;-72
2022/03/11 09:31:34;;;;;;;;;11.00;8.00;;;;;25.22;30.62;99607.16;5032858;28;45467;-71
2022/03/11 09:34:00;;;;;;;;;12.00;11.00;;;;;25.96;28.91;99609.09;5033091;28;45597;-70
2022/03/11 09:36:26;;;;;;;;;19.00;17.67;;;;;26.57;26.97;99627.47;5032555;28;46695;-71
2022/03/11 09:38:52;;;;;;;;;7.00;7.00;;;;;26.48;28.35;99627.06;5032680;28;45600;-69
2022/03/11 09:41:20;;;;;;;;;12.00;11.00;;;;;26.61;28.64;99646.97;5034004;28;45399;-70
2022/03/11 09:43:46;;;;;;;;;9.00;8.33;;;;;27.65;26.32;99608.41;5037221;28;45415;-71
2022/03/11 09:46:13;;;;;;;;;7.67;7.00;;;;;28.52;24.84;99615.16;5037367;28;46586;-73
2022/03/11 09:48:42;;;;;;;;;5.00;4.00;;;;;28.85;25.92;99624.81;5036129;28;45425;-71
2022/03/11 09:51:11;;;;;;;;;8.67;8.00;;;;;27.87;26.09;99634.03;5036472;28;45418;-70
2022/03/11 09:53:37;;;;;;;;;9.00;8.00;;;;;27.75;25.93;99619.47;5038156;28;45577;-71
2022/03/11 09:56:03;;;;;;;;;13.00;13.00;;;;;27.29;26.46;99606.78;5038622;28;46011;-72
2022/03/11 09:58:29;;;;;;;;;9.00;9.00;;;;;27.03;27.33;99637.66;5037640;28;45243;-71
2022/03/11 10:00:55;;;;;;;;;5.33;5.00;;;;;27.15;27.72;99641.50;5038274;28;45572;-71
2022/03/11 10:03:21;;;;;;;;;7.00;6.33;;;;;26.94;27.28;99654.22;5037814;28;45365;-73
2022/03/11 10:05:54;;;;;;;;;5.00;5.00;;;;;26.39;27.94;99658.72;5037630;28;46473;-71
2022/03/11 10:08:40;;;;;;;;;8.00;7.00;;;;;25.19;28.55;99639.38;5037610;28;45449;-70
2022/03/11 10:11:24;;;;;;;;;8.00;8.00;;;;;25.19;28.82;99645.56;5035115;28;45423;-70
2022/03/11 10:13:52;;;;;;;;;6.00;5.33;;;;;25.90;28.23;99654.84;5036449;28;45398;-70
2022/03/11 10:16:27;;;;;;;;;7.33;7.33;;;;;26.21;28.01;99654.28;5037067;28;46045;-71
2022/03/11 10:18:59;;;;;;;;;7.00;7.00;;;;;25.94;27.80;99668.06;5034474;28;45580;-71
2022/03/11 10:21:33;;;;;;;;;10.00;9.67;;;;;25.46;28.60;99657.78;5039031;28;45466;-71
2022/03/11 10:23:59;;;;;;;;;9.00;8.33;;;;;25.08;28.78;99677.25;5039375;28;45467;-70
2022/03/11 10:26:36;;;;;;;;;9.67;8.33;;;;;25.11;29.36;99692.25;5038436;28;46194;-70
2022/03/11 10:29:04;;;;;;;;;9.67;9.33;;;;;24.88;29.87;99658.53;5038752;28;45521;-78
2022/03/11 10:31:35;;;;;;;;;9.67;8.00;;;;;24.74;30.00;99685.84;5037806;28;45402;-71
2022/03/11 10:34:26;;;;;;;;;9.67;9.00;;;;;24.51;29.65;99692.13;5039087;28;45318;-71
2022/03/11 10:36:59;;;;;;;;;6.00;6.00;;;;;24.09;30.92;99669.75;5038145;28;46058;-71
2022/03/11 10:39:31;;;;;;;;;10.00;10.00;;;;;23.62;31.09;99649.31;5037784;28;45549;-73
2022/03/11 10:41:59;;;;;;;;;10.67;10.33;;;;;23.53;30.82;99676.31;5037995;28;45442;-72
2022/03/11 10:44:27;;;;;;;;;11.67;9.67;;;;;23.22;31.62;99664.13;5038114;28;45654;-79
2022/03/11 10:47:18;;;;;;;;;9.00;8.00;;;;;22.84;31.92;99668.97;5033946;28;45568;-71
2022/03/11 10:49:51;;;;;;;;;9.00;9.00;;;;;22.75;32.79;99682.59;5038066;28;45351;-71
2022/03/11 10:52:35;;;;;;;;;11.00;10.00;;;;;22.80;32.51;99670.00;5038086;28;45632;-77
2022/03/11 10:55:17;;;;;;;;;10.00;10.00;;;;;22.70;32.58;99671.25;5038439;28;45482;-70
2022/03/11 10:57:42;;;;;;;;;9.00;8.67;;;;;22.51;32.84;99667.47;5036355;28;45420;-70
2022/03/11 11:00:32;;;;;;;;;9.00;9.00;;;;;22.30;33.09;99669.00;5038206;28;45284;-74
2022/03/11 11:03:00;;;;;;;;;9.00;8.33;;;;;21.85;34.25;99642.00;5038817;28;45393;-71
2022/03/11 11:05:26;;;;;;;;;10.00;8.00;;;;;;;;5038725;28;45457;-69
2022/03/11 11:07:53;;;;;;;;;5.33;5.33;;;;;21.44;34.23;99677.78;5038127;28;46555;-70
2022/03/11 11:10:21;;;;;;;;;8.67;8.00;;;;;21.17;35.17;99680.28;5034240;28;45510;-71
2022/03/11 11:12:48;;;;;;;;;7.33;7.00;;;;;21.02;35.58;99672.72;5039158;28;45724;-70
2022/03/11 11:15:15;;;;;;;;;9.00;8.00;;;;;21.00;35.53;99683.38;5034105;28;45660;-70
2022/03/11 11:17:43;;;;;;;;;10.00;10.00;;;;;20.84;35.88;99674.94;5035910;28;47018;-70
2022/03/11 11:20:25;;;;;;;;;9.33;9.33;;;;;20.97;35.97;99690.53;5037011;28;45598;-70
2022/03/11 11:22:53;;;;;;;;;9.00;8.67;;;;;21.13;36.38;99694.56;5037103;28;45525;-70
2022/03/11 11:25:22;;;;;;;;;9.33;8.67;;;;;21.32;35.51;99689.59;5013557;27;45416;-71
2022/03/11 11:27:49;;;;;;;;;7.67;7.67;;;;;21.45;35.05;99684.84;5056966;28;45355;-70
2022/03/11 11:30:20;;;;;;;;;8.67;8.67;;;;;21.50;34.93;99679.41;5057250;28;45327;-71
2022/03/11 11:32:48;;;;;;;;;8.00;8.00;;;;;21.41;35.02;99685.81;5057004;28;45409;-71